createdAt,value
2018-02-09T00:00:22.705Z,92.25
2018-02-09T00:02:50.219Z,98.28
2018-02-09T00:05:17.736Z,97.80
2018-02-09T00:07:46.024Z,85.97
2018-02-09T00:10:14.322Z,103.20
2018-02-09T00:12:41.837Z,88.87
2018-02-09T00:15:10.133Z,104.03
2018-02-09T00:17:38.410Z,104.75
2018-02-09T00:20:06.701Z,88.53
2018-02-09T00:22:46.066Z,101.87
2018-02-09T00:25:13.580Z,88.35
2018-02-09T00:27:41.848Z,93.65
2018-02-09T00:30:10.128Z,94.90
2018-02-09T00:32:38.401Z,90.60
2018-02-09T00:35:06.684Z,95.28
2018-02-09T00:37:34.958Z,91.37
2018-02-09T00:40:03.267Z,84.68
2018-02-09T00:42:30.764Z,99.82
2018-02-09T00:44:58.267Z,115.88
2018-02-09T00:47:25.795Z,92.35
2018-02-09T00:49:54.091Z,93.10
2018-02-09T00:52:22.381Z,89.40
2018-02-09T00:54:49.890Z,93.05
2018-02-09T00:57:17.405Z,96.43
2018-02-09T00:59:44.937Z,100.15
2018-02-09T01:02:13.218Z,86.25
2018-02-09T01:04:41.494Z,87.95
2018-02-09T01:07:09.836Z,90.57
2018-02-09T01:09:37.330Z,89.60
2018-02-09T01:12:05.635Z,84.47
2018-02-09T01:14:33.140Z,98.05
2018-02-09T01:17:00.666Z,93.82
2018-02-09T01:19:28.155Z,94.43
2018-02-09T01:21:55.678Z,90.45
2018-02-09T01:24:23.194Z,92.93
2018-02-09T01:26:51.501Z,86.65
2018-02-09T01:29:19.001Z,97.22
2018-02-09T01:31:46.520Z,85.90
2018-02-09T01:34:14.059Z,80.65
2018-02-09T01:36:41.569Z,95.18
2018-02-09T01:39:09.098Z,97.75
2018-02-09T01:41:36.606Z,102.05
2018-02-09T01:44:04.919Z,82.50
2018-02-09T01:46:32.439Z,77.70
2018-02-09T01:48:59.970Z,90.65
2018-02-09T01:51:27.499Z,99.87
2018-02-09T01:53:55.013Z,99.10
2018-02-09T01:56:22.555Z,94.82
2018-02-09T01:58:50.073Z,100.05
2018-02-09T02:01:17.597Z,90.80
2018-02-09T02:03:45.092Z,86.55
2018-02-09T02:06:12.657Z,99.43
2018-02-09T02:08:40.165Z,94.45
2018-02-09T02:11:07.703Z,94.15
2018-02-09T02:13:35.224Z,93.10
2018-02-09T02:16:02.772Z,110.25
2018-02-09T02:18:31.037Z,87.50
2018-02-09T02:20:59.318Z,87.28
2018-02-09T02:23:27.616Z,83.85
2018-02-09T02:25:55.116Z,98.22
2018-02-09T02:28:22.650Z,87.07
2018-02-09T02:30:50.167Z,95.15
2018-02-09T02:33:19.468Z,87.80
2018-02-09T02:35:47.736Z,85.65
2018-02-09T02:38:16.042Z,80.82
2018-02-09T02:40:43.572Z,78.18
2018-02-09T02:43:11.855Z,89.05
2018-02-09T02:45:40.167Z,86.70
2018-02-09T02:48:07.679Z,74.50
2018-02-09T02:50:35.206Z,84.18
2018-02-09T02:53:02.709Z,84.37
2018-02-09T02:55:30.255Z,80.43
2018-02-09T02:57:57.780Z,99.62
2018-02-09T03:00:25.292Z,96.97
2018-02-09T03:02:53.581Z,92.25
2018-02-09T03:05:21.125Z,101.18
2018-02-09T03:07:49.403Z,84.30
2018-02-09T03:10:17.681Z,90.20
2018-02-09T03:12:45.960Z,86.75
2018-02-09T03:15:14.233Z,92.18
2018-02-09T03:17:42.521Z,88.97
2018-02-09T03:20:10.033Z,101.05
2018-02-09T03:22:37.566Z,92.32
2018-02-09T03:25:05.069Z,83.37
2018-02-09T03:27:33.371Z,94.20
2018-02-09T03:30:00.897Z,91.57
2018-02-09T03:32:28.408Z,85.05
2018-02-09T03:34:55.933Z,92.85
2018-02-09T03:37:24.211Z,96.25
2018-02-09T03:39:52.492Z,95.38
2018-02-09T03:42:20.755Z,87.18
2018-02-09T03:44:49.060Z,84.18
2018-02-09T03:47:16.576Z,89.75
2018-02-09T03:49:44.101Z,91.50
2018-02-09T03:52:11.609Z,81.18
2018-02-09T03:54:39.922Z,93.97
2018-02-09T03:57:07.444Z,85.45
2018-02-09T03:59:35.736Z,100.82
2018-02-09T04:02:03.278Z,102.95
2018-02-09T04:04:31.572Z,96.35
2018-02-09T04:06:59.110Z,81.90
2018-02-09T04:09:27.408Z,89.78
2018-02-09T04:11:54.933Z,82.18
2018-02-09T04:14:22.428Z,95.30
2018-02-09T04:16:49.990Z,93.10
2018-02-09T04:19:17.488Z,80.22
2018-02-09T04:21:44.998Z,83.00
2018-02-09T04:24:12.526Z,91.87
2018-02-09T04:26:40.034Z,108.12
2018-02-09T04:29:07.558Z,82.45
2018-02-09T04:31:35.847Z,86.97
2018-02-09T04:34:04.152Z,81.75
2018-02-09T04:36:31.659Z,89.05
2018-02-09T04:38:59.189Z,86.05
2018-02-09T04:41:26.692Z,91.65
2018-02-09T04:43:54.986Z,83.57
2018-02-09T04:46:22.498Z,90.18
2018-02-09T04:48:50.010Z,94.37
2018-02-09T04:51:17.551Z,78.57
2018-02-09T04:53:45.826Z,87.65
2018-02-09T04:56:14.130Z,100.65
2018-02-09T04:58:41.660Z,97.25
2018-02-09T05:01:10.587Z,94.18
2018-02-09T05:03:38.258Z,86.60
2018-02-09T05:06:07.339Z,93.82
2018-02-09T05:08:36.207Z,88.80
2018-02-09T05:11:04.861Z,90.95
2018-02-09T05:13:33.054Z,86.15
2018-02-09T05:16:00.628Z,76.90
2018-02-09T05:18:28.154Z,79.28
2018-02-09T05:20:55.698Z,83.87
2018-02-09T05:23:23.227Z,83.65
2018-02-09T05:25:50.737Z,71.28
2018-02-09T05:28:18.275Z,86.78
2018-02-09T05:30:45.797Z,82.78
2018-02-09T05:33:13.330Z,93.82
2018-02-09T05:35:41.691Z,81.43
2018-02-09T05:38:09.285Z,79.80
2018-02-09T05:40:36.814Z,95.72
2018-02-09T05:43:05.104Z,93.62
2018-02-09T05:45:33.383Z,103.38
2018-02-09T05:48:01.671Z,91.63
2018-02-09T05:50:29.264Z,91.22
2018-02-09T05:52:56.781Z,105.40
2018-02-09T05:55:24.306Z,91.78
2018-02-09T05:57:52.670Z,89.20
2018-02-09T06:00:20.225Z,87.57
2018-02-09T06:02:47.746Z,92.88
2018-02-09T06:05:15.249Z,91.50
2018-02-09T06:07:42.784Z,86.03
2018-02-09T06:10:10.284Z,80.85
2018-02-09T06:12:37.822Z,101.45
2018-02-09T06:15:05.334Z,82.80
2018-02-09T06:17:32.866Z,90.97
2018-02-09T06:20:00.369Z,98.15
2018-02-09T06:22:27.920Z,89.65
2018-02-09T06:24:55.433Z,91.18
2018-02-09T06:27:22.937Z,99.32
2018-02-09T06:29:50.466Z,87.70
2018-02-09T06:32:18.742Z,98.03
2018-02-09T06:34:47.048Z,84.15
2018-02-09T06:37:14.551Z,101.20
2018-02-09T06:39:42.080Z,86.10
2018-02-09T06:42:09.603Z,83.50
2018-02-09T06:44:37.896Z,95.68
2018-02-09T06:47:05.421Z,89.28
2018-02-09T06:49:32.937Z,104.05
2018-02-09T06:52:00.447Z,81.47
2018-02-09T06:54:28.734Z,83.07
2018-02-09T06:56:57.016Z,88.37
2018-02-09T06:59:25.278Z,90.03
2018-02-09T07:01:53.569Z,89.60
2018-02-09T07:04:21.841Z,88.20
2018-02-09T07:06:50.130Z,94.75
2018-02-09T07:09:17.650Z,104.15
2018-02-09T07:11:45.263Z,96.78
2018-02-09T07:14:12.769Z,85.32
2018-02-09T07:16:40.296Z,91.50
2018-02-09T07:19:07.818Z,84.80
2018-02-09T07:21:35.334Z,78.53
2018-02-09T07:24:02.884Z,94.00
2018-02-09T07:26:30.520Z,79.05
2018-02-09T07:28:58.101Z,91.10
2018-02-09T07:31:25.578Z,97.18
2018-02-09T07:33:53.111Z,87.70
2018-02-09T07:36:20.622Z,85.50
2018-02-09T07:38:48.888Z,92.05
2018-02-09T07:41:17.195Z,76.97
2018-02-09T07:43:44.716Z,78.30
2018-02-09T07:46:12.256Z,78.85
2018-02-09T07:48:39.777Z,81.35
2018-02-09T07:51:07.301Z,93.15
2018-02-09T07:53:35.592Z,82.15
2018-02-09T07:56:03.117Z,84.60
2018-02-09T07:58:30.631Z,76.32
2018-02-09T08:00:58.175Z,76.00
2018-02-09T08:03:25.695Z,80.57
2018-02-09T08:05:53.206Z,72.57
2018-02-09T08:08:20.732Z,79.75
2018-02-09T08:10:49.016Z,91.87
2018-02-09T08:13:17.311Z,79.60
2018-02-09T08:15:44.815Z,82.95
2018-02-09T08:18:12.333Z,77.35
2018-02-09T08:20:39.851Z,70.72
2018-02-09T08:23:08.149Z,78.25
2018-02-09T08:25:37.171Z,65.53
2018-02-09T08:28:04.683Z,74.43
2018-02-09T08:30:32.207Z,77.07
2018-02-09T08:32:59.720Z,74.40
2018-02-09T08:35:27.249Z,72.00
2018-02-09T08:37:54.748Z,71.32
2018-02-09T08:40:22.273Z,67.30
2018-02-09T08:42:49.781Z,71.65
2018-02-09T08:45:17.306Z,68.05
2018-02-09T08:47:45.578Z,61.50
2018-02-09T08:50:13.886Z,59.17
2018-02-09T08:52:41.394Z,60.45
2018-02-09T08:55:08.906Z,62.00
2018-02-09T08:57:36.429Z,66.07
2018-02-09T09:00:05.107Z,57.35
2018-02-09T09:02:32.658Z,59.33
2018-02-09T09:05:00.157Z,48.33
2018-02-09T09:07:27.678Z,50.53
2018-02-09T09:09:55.179Z,54.53
2018-02-09T09:12:22.715Z,54.88
2018-02-09T09:14:50.999Z,53.78
2018-02-09T09:17:18.496Z,54.33
2018-02-09T09:19:46.033Z,46.28
2018-02-09T09:22:13.537Z,47.33
2018-02-09T09:24:41.074Z,55.80
2018-02-09T09:27:08.581Z,50.30
2018-02-09T09:29:36.874Z,52.03
2018-02-09T09:32:04.396Z,49.35
2018-02-09T09:34:31.921Z,49.38
2018-02-09T09:36:59.430Z,49.20
2018-02-09T09:39:27.765Z,49.53
2018-02-09T09:41:55.262Z,52.65
2018-02-09T09:44:23.538Z,48.47
2018-02-09T09:46:51.821Z,50.92
2018-02-09T09:49:20.293Z,48.95
2018-02-09T09:51:48.576Z,56.50
2018-02-09T09:54:16.850Z,46.50
2018-02-09T09:56:45.148Z,49.47
2018-02-09T09:59:12.644Z,45.92
2018-02-09T10:01:40.171Z,54.67
2018-02-09T10:04:07.681Z,48.70
2018-02-09T10:06:35.191Z,49.80
2018-02-09T10:09:02.726Z,44.58
2018-02-09T10:11:31.015Z,45.35
2018-02-09T10:13:58.538Z,45.55
2018-02-09T10:16:26.047Z,45.72
2018-02-09T10:18:53.565Z,53.33
2018-02-09T10:21:21.852Z,52.70
2018-02-09T10:23:50.139Z,50.00
2018-02-09T10:26:18.463Z,46.42
2018-02-09T10:28:45.983Z,45.95
2018-02-09T10:31:13.500Z,48.72
2018-02-09T10:33:41.007Z,48.28
2018-02-09T10:36:08.517Z,48.50
2018-02-09T10:38:36.035Z,48.72
2018-02-09T10:41:03.571Z,44.10
2018-02-09T10:43:31.077Z,43.17
2018-02-09T10:45:58.596Z,49.22
2018-02-09T10:48:26.112Z,47.58
2018-02-09T10:50:53.623Z,50.35
2018-02-09T10:53:21.176Z,50.05
2018-02-09T10:55:49.456Z,55.12
2018-02-09T10:58:16.958Z,46.80
2018-02-09T11:00:50.135Z,50.72
2018-02-09T11:03:17.642Z,47.05
2018-02-09T11:05:45.913Z,47.90
2018-02-09T11:08:14.192Z,43.05
2018-02-09T11:10:47.479Z,38.25
2018-02-09T11:13:15.775Z,48.30
2018-02-09T11:15:43.286Z,54.05
2018-02-09T11:18:10.804Z,49.40
2018-02-09T11:20:38.305Z,39.00
2018-02-09T11:23:05.808Z,41.20
2018-02-09T11:25:33.330Z,47.15
2018-02-09T11:28:00.848Z,46.28
2018-02-09T11:30:28.364Z,40.15
2018-02-09T11:32:56.656Z,49.72
2018-02-09T11:35:24.159Z,43.50
2018-02-09T11:37:51.679Z,40.10
2018-02-09T11:40:19.201Z,47.28
2018-02-09T11:42:46.707Z,40.17
2018-02-09T11:45:14.256Z,38.53
2018-02-09T11:47:41.761Z,49.05
2018-02-09T11:50:09.253Z,49.35
2018-02-09T11:52:37.523Z,43.33
2018-02-09T11:55:05.780Z,46.20
2018-02-09T11:57:33.306Z,38.15
2018-02-09T12:00:00.800Z,36.35
2018-02-09T12:02:28.330Z,44.45
2018-02-09T12:04:55.837Z,45.38
2018-02-09T12:07:24.134Z,41.65
2018-02-09T12:09:51.656Z,40.78
2018-02-09T12:12:19.176Z,35.30
2018-02-09T12:14:46.710Z,47.90
2018-02-09T12:17:14.230Z,39.55
2018-02-09T12:19:41.750Z,42.65
2018-02-09T12:22:09.297Z,43.53
2018-02-09T12:24:36.818Z,45.12
2018-02-09T12:27:05.089Z,37.17
2018-02-09T12:29:33.391Z,40.30
2018-02-09T12:32:00.902Z,42.53
2018-02-09T12:34:29.189Z,41.28
2018-02-09T12:36:56.698Z,36.47
2018-02-09T12:39:24.217Z,43.35
2018-02-09T12:41:52.501Z,44.65
2018-02-09T12:44:20.788Z,42.33
2018-02-09T12:46:49.090Z,40.45
2018-02-09T12:49:16.608Z,36.80
2018-02-09T12:51:44.885Z,41.95
2018-02-09T12:54:13.148Z,41.40
2018-02-09T12:56:40.673Z,45.22
2018-02-09T12:59:08.173Z,41.97
2018-02-09T13:01:35.671Z,45.63
2018-02-09T13:04:03.191Z,37.00
2018-02-09T13:06:31.475Z,44.88
2018-02-09T13:08:59.752Z,43.25
2018-02-09T13:11:28.036Z,40.45
2018-02-09T13:13:56.309Z,39.15
2018-02-09T13:16:24.585Z,41.53
2018-02-09T13:18:52.856Z,43.90
2018-02-09T13:21:21.139Z,47.22
2018-02-09T13:24:01.355Z,37.50
2018-02-09T13:26:28.875Z,43.47
2018-02-09T13:28:59.031Z,47.17
2018-02-09T13:31:26.568Z,40.85
2018-02-09T13:33:54.077Z,42.33
2018-02-09T13:36:33.514Z,41.00
2018-02-09T13:39:01.802Z,46.88
2018-02-09T13:41:30.093Z,42.40
2018-02-09T13:43:57.588Z,46.25
2018-02-09T13:46:25.119Z,37.03
2018-02-09T13:48:52.635Z,36.28
2018-02-09T13:51:20.175Z,39.97
2018-02-09T13:53:48.534Z,46.58
2018-02-09T13:56:16.038Z,37.42
2018-02-09T13:58:44.339Z,38.83
2018-02-09T14:01:11.846Z,41.67
2018-02-09T14:03:39.378Z,43.30
2018-02-09T14:06:06.891Z,40.53
2018-02-09T14:08:35.186Z,42.90
2018-02-09T14:11:03.511Z,37.63
2018-02-09T14:13:31.041Z,42.28
2018-02-09T14:15:58.549Z,40.40
2018-02-09T14:18:26.065Z,39.97
2018-02-09T14:20:53.599Z,44.25
2018-02-09T14:23:21.902Z,43.58
2018-02-09T14:25:49.414Z,51.83
2018-02-09T14:28:17.699Z,49.25
2018-02-09T14:30:45.996Z,44.25
2018-02-09T14:33:13.493Z,45.60
2018-02-09T14:35:41.018Z,46.13
2018-02-09T14:38:08.535Z,49.28
2018-02-09T14:40:36.045Z,45.63
2018-02-09T14:43:03.566Z,58.47
2018-02-09T14:45:31.838Z,51.37
2018-02-09T14:48:00.140Z,49.83
2018-02-09T14:50:27.645Z,42.08
2018-02-09T14:52:55.179Z,45.55
2018-02-09T14:55:22.677Z,50.63
2018-02-09T14:57:50.971Z,47.10
2018-02-09T15:00:19.699Z,47.60
2018-02-09T15:02:47.229Z,48.60
2018-02-09T15:05:15.512Z,48.30
2018-02-09T15:07:43.012Z,42.95
2018-02-09T15:10:10.546Z,48.40
2018-02-09T15:12:38.064Z,44.40
2018-02-09T15:15:06.357Z,41.28
2018-02-09T15:17:34.638Z,48.85
2018-02-09T15:20:02.171Z,45.45
2018-02-09T15:22:29.680Z,38.75
2018-02-09T15:24:57.188Z,39.25
2018-02-09T15:27:24.707Z,38.53
2018-02-09T15:29:52.223Z,44.50
2018-02-09T15:32:20.519Z,41.83
2018-02-09T15:34:48.016Z,46.88
2018-02-09T15:37:15.548Z,51.70
2018-02-09T15:39:43.054Z,46.20
2018-02-09T15:42:10.578Z,47.70
2018-02-09T15:44:38.085Z,45.70
2018-02-09T15:47:06.359Z,46.97
2018-02-09T15:49:34.640Z,43.67
2018-02-09T15:52:02.980Z,50.42
2018-02-09T15:54:30.459Z,43.60
2018-02-09T15:56:57.972Z,48.95
2018-02-09T15:59:25.498Z,47.47
2018-02-09T16:01:53.766Z,52.92
2018-02-09T16:04:22.053Z,49.13
2018-02-09T16:06:50.326Z,47.60
2018-02-09T16:09:18.613Z,46.00
2018-02-09T16:11:46.111Z,45.28
2018-02-09T16:14:14.394Z,49.55
2018-02-09T16:16:41.892Z,41.58
2018-02-09T16:19:10.213Z,50.70
2018-02-09T16:21:37.740Z,46.03
2018-02-09T16:24:05.264Z,44.20
2018-02-09T16:26:32.794Z,48.47
2018-02-09T16:29:00.306Z,46.40
2018-02-09T16:31:28.593Z,49.67
2018-02-09T16:33:56.096Z,47.17
2018-02-09T16:36:23.635Z,42.35
2018-02-09T16:38:51.146Z,53.40
2018-02-09T16:41:19.434Z,51.22
2018-02-09T16:43:47.710Z,42.22
2018-02-09T16:46:15.986Z,53.33
2018-02-09T16:48:44.277Z,42.03
2018-02-09T16:51:11.855Z,55.08
2018-02-09T16:53:39.395Z,56.40
2018-02-09T16:56:06.906Z,46.47
2018-02-09T16:58:34.445Z,50.45
2018-02-09T17:01:01.967Z,45.70
2018-02-09T17:03:29.489Z,45.38
2018-02-09T17:05:57.006Z,48.15
2018-02-09T17:08:24.534Z,56.28
2018-02-09T17:10:52.859Z,56.20
2018-02-09T17:13:20.373Z,46.65
2018-02-09T17:15:48.850Z,52.38
2018-02-09T17:18:17.135Z,48.72
2018-02-09T17:20:44.673Z,55.58
2018-02-09T17:23:12.953Z,48.50
2018-02-09T17:25:41.273Z,49.83
2018-02-09T17:28:08.781Z,55.88
2018-02-09T17:30:36.300Z,54.50
2018-02-09T17:33:03.819Z,51.30
2018-02-09T17:35:32.094Z,49.05
2018-02-09T17:38:00.399Z,49.45
2018-02-09T17:40:27.905Z,47.72
2018-02-09T17:42:55.427Z,109.50
2018-02-09T17:45:22.933Z,59.42
2018-02-09T17:47:51.235Z,50.17
2018-02-09T17:50:18.812Z,52.70
2018-02-09T17:52:47.068Z,52.78
2018-02-09T17:55:14.569Z,59.85
2018-02-09T17:57:42.102Z,50.63
2018-02-09T18:00:09.624Z,46.28
2018-02-09T18:02:37.897Z,46.00
2018-02-09T18:05:06.188Z,51.70
2018-02-09T18:07:33.702Z,49.03
2018-02-09T18:10:01.220Z,51.22
2018-02-09T18:12:28.726Z,54.53
2018-02-09T18:14:56.267Z,60.05
2018-02-09T18:17:34.812Z,56.95
2018-02-09T18:20:02.337Z,52.83
2018-02-09T18:22:29.860Z,47.62
2018-02-09T18:24:58.148Z,50.95
2018-02-09T18:27:25.659Z,56.03
2018-02-09T18:29:53.175Z,46.72
2018-02-09T18:32:20.696Z,50.10
2018-02-09T18:34:48.984Z,46.22
2018-02-09T18:37:17.274Z,48.95
2018-02-09T18:39:44.785Z,53.40
2018-02-09T18:42:12.310Z,50.25
2018-02-09T18:44:39.812Z,50.53
2018-02-09T18:47:07.346Z,48.20
2018-02-09T18:49:35.629Z,60.30
2018-02-09T18:52:03.138Z,56.35
2018-02-09T18:54:30.660Z,50.85
2018-02-09T18:56:58.855Z,55.03
2018-02-09T18:59:26.448Z,55.17
2018-02-09T19:01:54.002Z,47.58
2018-02-09T19:04:22.292Z,54.15
2018-02-09T19:06:49.801Z,49.28
2018-02-09T19:09:18.121Z,54.55
2018-02-09T19:11:45.637Z,59.38
2018-02-09T19:14:13.932Z,55.45
2018-02-09T19:16:42.235Z,55.12
2018-02-09T19:19:09.737Z,54.50
2018-02-09T19:21:37.252Z,50.53
2018-02-09T19:24:04.748Z,50.95
2018-02-09T19:26:32.274Z,53.55
2018-02-09T19:28:59.785Z,49.65
2018-02-09T19:31:28.075Z,51.83
2018-02-09T19:33:56.354Z,50.45
2018-02-09T19:36:24.678Z,59.15
2018-02-09T19:38:52.180Z,56.67
2018-02-09T19:41:20.538Z,58.00
2018-02-09T19:43:48.065Z,56.40
2018-02-09T19:46:15.578Z,54.70
2018-02-09T19:48:43.885Z,60.58
2018-02-09T19:51:11.412Z,58.60
2018-02-09T19:53:39.696Z,61.03
2018-02-09T19:56:08.018Z,58.47
2018-02-09T19:58:35.541Z,60.83
2018-02-09T20:01:03.048Z,52.47
2018-02-09T20:03:30.558Z,55.72
2018-02-09T20:05:58.095Z,51.25
2018-02-09T20:08:26.388Z,61.00
2018-02-09T20:10:53.913Z,56.72
2018-02-09T20:13:21.430Z,49.90
2018-02-09T20:15:48.949Z,62.20
2018-02-09T20:18:20.238Z,52.03
2018-02-09T20:20:47.785Z,54.47
2018-02-09T20:23:15.299Z,61.30
2018-02-09T20:25:42.824Z,58.67
2018-02-09T20:28:10.343Z,52.25
2018-02-09T20:30:37.869Z,56.75
2018-02-09T20:33:05.401Z,60.15
2018-02-09T20:35:32.909Z,56.13
2018-02-09T20:38:01.220Z,60.05
2018-02-09T20:40:28.730Z,60.22
2018-02-09T20:42:56.258Z,58.53
2018-02-09T20:45:23.770Z,63.10
2018-02-09T20:47:51.673Z,63.83
2018-02-09T20:50:20.206Z,58.13
2018-02-09T20:52:48.476Z,65.57
2018-02-09T20:55:16.003Z,54.85
2018-02-09T20:57:43.526Z,52.42
2018-02-09T21:00:11.071Z,61.83
2018-02-09T21:02:39.348Z,64.87
2018-02-09T21:05:07.652Z,60.30
2018-02-09T21:07:35.152Z,56.80
2018-02-09T21:10:02.692Z,62.75
2018-02-09T21:12:30.205Z,63.22
2018-02-09T21:14:57.746Z,56.60
2018-02-09T21:17:26.043Z,55.47
2018-02-09T21:19:53.572Z,63.70
2018-02-09T21:22:21.124Z,59.47
2018-02-09T21:24:48.619Z,60.78
2018-02-09T21:27:16.142Z,60.45
2018-02-09T21:29:43.694Z,64.60
2018-02-09T21:32:11.190Z,62.47
2018-02-09T21:34:38.702Z,59.72
2018-02-09T21:37:06.247Z,64.10
2018-02-09T21:39:33.763Z,71.00
2018-02-09T21:42:02.043Z,69.30
2018-02-09T21:44:29.567Z,64.05
2018-02-09T21:46:57.078Z,65.22
2018-02-09T21:49:24.620Z,61.75
2018-02-09T21:51:52.123Z,63.38
2018-02-09T21:54:19.635Z,58.87
2018-02-09T21:56:47.901Z,61.45
2018-02-09T21:59:16.197Z,65.60
2018-02-09T22:01:43.710Z,52.65
2018-02-09T22:04:11.218Z,68.65
2018-02-09T22:06:38.746Z,71.30
2018-02-09T22:09:06.242Z,65.97
2018-02-09T22:11:33.779Z,65.40
2018-02-09T22:14:01.294Z,71.95
2018-02-09T22:16:29.604Z,64.05
2018-02-09T22:18:57.886Z,71.40
2018-02-09T22:21:26.174Z,62.88
2018-02-09T22:23:53.690Z,64.25
2018-02-09T22:26:21.236Z,58.28
2018-02-09T22:28:48.737Z,67.37
2018-02-09T22:31:17.036Z,63.28
2018-02-09T22:33:44.561Z,57.55
2018-02-09T22:36:13.392Z,67.22
2018-02-09T22:38:42.077Z,74.90
2018-02-09T22:41:09.668Z,63.40
2018-02-09T22:43:37.184Z,62.75
2018-02-09T22:46:04.683Z,68.07
2018-02-09T22:48:32.222Z,60.83
2018-02-09T22:50:59.729Z,62.88
2018-02-09T22:53:28.072Z,69.78
2018-02-09T22:55:55.557Z,66.45
2018-02-09T22:58:23.065Z,73.30
2018-02-09T23:00:52.187Z,63.90
2018-02-09T23:03:19.698Z,68.30
2018-02-09T23:05:47.213Z,62.20
2018-02-09T23:08:14.733Z,68.85
2018-02-09T23:10:42.279Z,62.58
2018-02-09T23:13:09.779Z,68.35
2018-02-09T23:15:37.296Z,63.45
2018-02-09T23:18:04.808Z,62.83
2018-02-09T23:20:32.368Z,66.35
2018-02-09T23:22:59.848Z,72.18
2018-02-09T23:25:28.133Z,71.57
2018-02-09T23:27:56.426Z,71.43
2018-02-09T23:30:23.924Z,73.75
2018-02-09T23:32:51.471Z,61.97
2018-02-09T23:35:18.974Z,66.53
2018-02-09T23:37:47.273Z,89.55
2018-02-09T23:40:14.798Z,70.55
2018-02-09T23:42:42.296Z,72.53
2018-02-09T23:45:09.823Z,60.40
2018-02-09T23:47:38.119Z,65.90
2018-02-09T23:50:06.412Z,60.80
2018-02-09T23:52:33.927Z,57.75
2018-02-09T23:55:01.481Z,69.37
2018-02-09T23:57:29.004Z,64.93
2018-02-09T23:59:56.541Z,64.12
